Terminal Aerodrome Forecast
Issued by NWS Austin/San Antonio, TX

Home | Current Version | Previous Version | Text Only | Print | Product List | Glossary On
Versions: 1 2 3 4 5 6 7 8 9 10 11 12 13 14 15 16
000
FTUS44 KEWX 242300
TAFAUS
TAF
KAUS 242326Z 2500/2606 08006KT P6SM SCT050 SCT250
     FM250200 16006KT P6SM FEW050 SCT250
     FM250800 22005KT P6SM FEW015
     FM251600 17008KT P6SM SCT050=

USA.gov is the U.S. government's official web portal to all federal, state and local government web resources and services.